Time;durP1;ratioP1;P1;durP2;ratioP2;P2;SDS_P1;SDS_P2;PMS_P1;PMS_P2;Temp;Humidity;BMP_temperature;BMP_pressure;BME280_temperature;BME280_humidity;BME280_pressure;Samples;Min_cycle;Max_cycle;Signal;HPM_P1;HPM_P2
2021/05/11 00:02:10;;;;;;;17.33;10.37;;;11.60;99.90;;;;;;20908470;28;20063;-76
2021/05/11 00:12:11;;;;;;;14.40;8.10;;;11.60;99.90;;;;;;20915855;28;20029;-76
2021/05/11 00:22:12;;;;;;;11.17;7.20;;;11.60;99.90;;;;;;20907473;28;20056;-76
2021/05/11 00:32:12;;;;;;;16.23;8.93;;;11.40;99.90;;;;;;20907059;28;20040;-76
2021/05/11 00:42:13;;;;;;;21.17;9.50;;;11.40;99.90;;;;;;20905214;28;20037;-76
2021/05/11 00:52:14;;;;;;;26.37;11.73;;;11.40;99.90;;;;;;20906356;28;20037;-76
2021/05/11 01:02:15;;;;;;;29.87;11.33;;;11.50;99.90;;;;;;20905710;28;20060;-76
2021/05/11 01:12:16;;;;;;;35.30;12.03;;;11.50;99.90;;;;;;20904458;28;20494;-76
2021/05/11 02:24:11;;;;;;;22.27;11.20;;;11.40;99.90;;;;;;20915615;28;20090;-76
2021/05/11 02:34:12;;;;;;;24.30;11.60;;;11.40;99.90;;;;;;20914199;28;20043;-76
2021/05/11 02:44:16;;;;;;;24.37;11.40;;;11.40;99.90;;;;;;20896144;28;20064;-76
2021/05/11 02:54:17;;;;;;;20.70;10.73;;;11.40;99.90;;;;;;20913320;28;20511;-76
2021/05/11 03:04:18;;;;;;;16.83;9.37;;;11.40;99.90;;;;;;20912638;28;20036;-76
2021/05/11 03:14:19;;;;;;;15.23;7.93;;;11.30;99.90;;;;;;20911548;28;20025;-76
2021/05/11 03:24:20;;;;;;;16.80;8.10;;;11.30;99.90;;;;;;20932417;22;20055;-75
2021/05/11 03:34:21;;;;;;;14.67;8.80;;;11.20;99.90;;;;;;20915507;28;20483;-76
2021/05/11 03:44:26;;;;;;;11.90;7.30;;;11.20;99.90;;;;;;20910110;28;20033;-76
2021/05/11 03:54:26;;;;;;;10.00;6.72;;;11.10;99.90;;;;;;20909116;28;20033;-77
2021/05/11 04:04:27;;;;;;;9.50;5.77;;;11.10;99.90;;;;;;20908645;28;20526;-76
2021/05/11 04:24:48;;;;;;;17.63;8.02;;;11.00;99.90;;;;;;20907478;28;20063;-76
2021/05/11 04:34:48;;;;;;;19.67;9.50;;;11.00;99.90;;;;;;20904945;28;20368;-76
2021/05/11 04:44:51;;;;;;;19.57;11.07;;;11.00;99.90;;;;;;20905936;28;20087;-76
2021/05/11 04:54:52;;;;;;;16.23;9.93;;;11.00;99.90;;;;;;20904071;28;20032;-77
2021/05/11 05:04:53;;;;;;;23.30;9.87;;;11.00;99.90;;;;;;20914939;28;20047;-77
2021/05/11 05:14:54;;;;;;;15.57;10.10;;;11.10;99.90;;;;;;20921203;28;20449;-76
2021/05/11 05:24:57;;;;;;;15.63;9.93;;;11.10;99.90;;;;;;20919389;28;20048;-76
2021/05/11 05:34:59;;;;;;;15.55;9.18;;;11.20;99.90;;;;;;20928108;28;20044;-76
2021/05/11 05:45:00;;;;;;;18.00;10.07;;;11.30;99.90;;;;;;20918197;28;20040;-76
2021/05/11 05:55:04;;;;;;;19.03;9.43;;;11.30;99.90;;;;;;20917053;28;20029;-77
2021/05/11 06:05:05;;;;;;;15.23;8.85;;;11.30;99.90;;;;;;20916523;28;20394;-76
2021/05/11 06:25:09;;;;;;;14.15;7.57;;;11.50;99.90;;;;;;20928354;28;20029;-78
2021/05/11 06:35:11;;;;;;;13.95;7.95;;;11.90;99.90;;;;;;20927640;28;20616;-78
2021/05/11 06:55:16;;;;;;;23.67;11.37;;;12.40;99.90;;;;;;20915066;28;20037;-77
2021/05/11 07:05:17;;;;;;;9.38;5.57;;;12.80;99.90;;;;;;20910631;28;20029;-76
2021/05/11 07:15:18;;;;;;;7.17;4.63;;;13.10;99.90;;;;;;20909858;28;20052;-77
2021/05/11 07:25:19;;;;;;;6.13;4.60;;;12.90;99.90;;;;;;20913278;28;20434;-76
2021/05/11 07:35:20;;;;;;;6.47;3.87;;;12.50;99.90;;;;;;20909429;28;20036;-77
2021/05/11 07:45:31;;;;;;;6.17;3.83;;;12.80;99.90;;;;;;20908809;28;20029;-77
2021/05/11 08:16:06;;;;;;;3.90;2.58;;;13.50;99.90;;;;;;20907814;28;20399;-76
2021/05/11 08:36:27;;;;;;;6.47;3.65;;;13.80;99.90;;;;;;20892815;28;20037;-77
2021/05/11 08:46:28;;;;;;;6.23;3.40;;;14.20;99.90;;;;;;20904224;28;20033;-76
2021/05/11 09:28:02;;;;;;;6.25;3.45;;;15.10;99.90;;;;;;20861887;28;20040;-76
2021/05/11 10:51:32;;;;;;;1.70;0.80;;;12.50;99.90;;;;;;20895550;28;20037;-78
2021/05/11 11:01:36;;;;;;;0.97;0.40;;;12.50;99.90;;;;;;20893503;28;20506;-77
2021/05/11 11:11:37;;;;;;;2.45;1.38;;;12.50;99.90;;;;;;20879968;28;20025;-77
2021/05/11 11:31:48;;;;;;;1.20;0.60;;;12.50;99.90;;;;;;20902248;28;20086;-78
2021/05/11 11:41:51;;;;;;;5.22;1.00;;;12.40;99.90;;;;;;20898167;28;20029;-79
2021/05/11 11:52:07;;;;;;;2.75;0.80;;;12.20;99.90;;;;;;20871619;28;20402;-79
2021/05/11 12:02:08;;;;;;;3.90;0.80;;;12.20;99.90;;;;;;20887568;28;20522;-78
2021/05/11 12:12:10;;;;;;;3.80;1.10;;;12.20;99.90;;;;;;20889351;28;20024;-77
2021/05/11 12:22:14;;;;;;;2.03;1.23;;;12.30;99.90;;;;;;20887215;28;20128;-77
2021/05/11 12:32:22;;;;;;;1.88;0.90;;;12.40;99.90;;;;;;20887570;28;20028;-77
2021/05/11 12:42:25;;;;;;;1.30;0.88;;;12.40;99.90;;;;;;20885565;28;20086;-76
2021/05/11 12:52:29;;;;;;;1.05;0.70;;;12.30;99.90;;;;;;20884980;28;20032;-78
2021/05/11 13:23:21;;;;;;;0.88;0.50;;;12.30;99.90;;;;;;20911579;28;20074;-78
2021/05/11 13:33:45;;;;;;;0.45;0.40;;;12.50;99.90;;;;;;20897718;28;20068;-78
2021/05/11 13:43:45;;;;;;;0.80;0.40;;;12.70;99.90;;;;;;20917446;28;20039;-78
2021/05/11 13:53:51;;;;;;;0.40;0.40;;;12.60;99.90;;;;;;20980331;28;20032;-78
2021/05/11 14:03:52;;;;;;;0.93;0.80;;;12.20;99.90;;;;;;20910485;28;20037;-78
2021/05/11 14:13:53;;;;;;;1.23;0.70;;;12.20;99.90;;;;;;20896442;28;20047;-78
2021/05/11 14:23:56;;;;;;;1.93;0.80;;;12.20;99.90;;;;;;20905723;28;20033;-77
2021/05/11 14:33:57;;;;;;;2.67;1.35;;;12.00;99.90;;;;;;20894971;28;20033;-78
2021/05/11 14:43:59;;;;;;;1.17;0.80;;;12.10;99.90;;;;;;20896458;28;20029;-78
2021/05/11 14:54:00;;;;;;;3.30;1.40;;;12.20;99.90;;;;;;20896067;28;20033;-78
2021/05/11 15:04:01;;;;;;;6.30;3.67;;;12.10;99.90;;;;;;20894380;28;20118;-77
2021/05/11 15:14:02;;;;;;;3.23;2.00;;;11.90;99.90;;;;;;20893424;28;20041;-77
2021/05/11 15:24:04;;;;;;;3.87;2.40;;;11.80;99.90;;;;;;20891744;28;20037;-77
2021/05/11 15:34:05;;;;;;;;;;;12.00;99.90;;;;;;20891287;28;20072;-76
2021/05/11 15:44:06;;;;;;;3.47;2.30;;;12.00;99.90;;;;;;20888203;28;20003;-76
2021/05/11 15:54:06;;;;;;;4.73;3.40;;;12.00;99.90;;;;;;20884978;28;20036;-77
2021/05/11 16:04:07;;;;;;;5.33;2.20;;;12.00;99.90;;;;;;20887032;28;20037;-77
2021/05/11 16:14:08;;;;;;;4.10;2.03;;;12.00;99.90;;;;;;20886341;28;20032;-77
2021/05/11 16:24:09;;;;;;;3.87;2.03;;;12.10;99.90;;;;;;20886231;28;20067;-76
2021/05/11 16:34:10;;;;;;;6.93;2.93;;;12.20;99.90;;;;;;20899272;28;20410;-76
2021/05/11 16:44:11;;;;;;;8.33;3.20;;;12.20;99.90;;;;;;20913341;28;20032;-77
2021/05/11 16:54:12;;;;;;;4.97;2.87;;;12.10;99.90;;;;;;20974225;28;20029;-77
2021/05/11 17:04:13;;;;;;;2.87;2.13;;;12.30;99.90;;;;;;20985174;28;20077;-76
2021/05/11 17:14:14;;;;;;;3.07;1.90;;;12.30;99.90;;;;;;20919698;28;20522;-77
2021/05/11 17:24:15;;;;;;;5.93;2.95;;;12.40;99.90;;;;;;20901930;28;20041;-76
2021/05/11 17:34:16;;;;;;;5.57;4.23;;;12.40;99.90;;;;;;20902009;28;20036;-76
2021/05/11 17:44:17;;;;;;;77.53;27.07;;;12.30;99.90;;;;;;20900211;28;20734;-76
2021/05/11 17:54:18;;;;;;;21.20;8.60;;;12.20;99.90;;;;;;20898420;28;20591;-77
2021/05/11 18:04:19;;;;;;;6.05;3.58;;;12.30;99.90;;;;;;20898377;28;20033;-76
2021/05/11 18:14:20;;;;;;;3.93;2.07;;;12.30;99.90;;;;;;20894964;28;20033;-76
2021/05/11 18:24:21;;;;;;;4.80;1.83;;;12.20;99.90;;;;;;20894978;28;20484;-76
2021/05/11 18:34:22;;;;;;;4.00;2.50;;;11.80;99.90;;;;;;20894141;28;20044;-76
2021/05/11 18:44:24;;;;;;;3.80;2.60;;;12.00;99.90;;;;;;20902360;28;20043;-76
2021/05/11 18:54:25;;;;;;;13.50;7.00;;;12.00;99.90;;;;;;20890728;28;20033;-77
2021/05/11 19:04:26;;;;;;;1.53;1.00;;;11.90;99.90;;;;;;20891973;28;20036;-78
2021/05/11 19:14:27;;;;;;;1.33;0.77;;;11.10;99.90;;;;;;20890424;28;20032;-77
2021/05/11 19:24:29;;;;;;;2.03;0.93;;;10.80;99.90;;;;;;20888904;28;20037;-77
2021/05/11 19:34:29;;;;;;;6.83;4.10;;;10.70;99.90;;;;;;20870777;28;20030;-77
2021/05/11 19:44:32;;;;;;;3.83;2.30;;;10.50;99.90;;;;;;20876967;28;20025;-77
2021/05/11 19:54:33;;;;;;;4.63;1.17;;;10.50;99.90;;;;;;20971603;28;20042;-77
2021/05/11 20:04:35;;;;;;;4.13;1.50;;;10.40;99.90;;;;;;20925823;28;20084;-76
2021/05/11 20:14:36;;;;;;;2.80;2.30;;;10.30;99.90;;;;;;20888783;28;20033;-77
2021/05/11 20:24:37;;;;;;;6.80;2.80;;;10.30;99.90;;;;;;20888286;28;20033;-77
2021/05/11 20:34:38;;;;;;;9.93;4.13;;;10.30;99.90;;;;;;20884920;28;20045;-77
2021/05/11 20:44:39;;;;;;;5.57;2.33;;;10.40;99.90;;;;;;20911552;28;20119;-76
2021/05/11 20:54:40;;;;;;;3.10;2.50;;;10.20;99.90;;;;;;20898767;28;20114;-77
2021/05/11 21:04:41;;;;;;;5.63;3.47;;;10.20;99.90;;;;;;20883199;28;20119;-78
2021/05/11 21:14:42;;;;;;;4.20;2.90;;;10.20;99.90;;;;;;20882535;28;20116;-77
2021/05/11 21:24:44;;;;;;;3.40;2.10;;;10.20;99.90;;;;;;20883205;28;20407;-74
2021/05/11 21:34:46;;;;;;;3.40;1.63;;;10.20;99.90;;;;;;20908987;22;20062;-77
2021/05/11 21:44:47;;;;;;;3.15;2.15;;;10.10;99.90;;;;;;20910053;28;20045;-76
2021/05/11 21:54:47;;;;;;;5.07;1.90;;;10.10;99.90;;;;;;20916519;28;20067;-76
2021/05/11 22:04:48;;;;;;;4.00;1.90;;;10.10;99.90;;;;;;20916114;28;20167;-76
2021/05/11 22:14:49;;;;;;;2.40;1.40;;;10.10;99.90;;;;;;20998350;28;20166;-76
2021/05/11 22:24:50;;;;;;;2.60;1.27;;;10.00;99.90;;;;;;20998908;28;20116;-76
2021/05/11 22:34:51;;;;;;;1.77;1.27;;;10.00;99.90;;;;;;20997927;28;20111;-76
2021/05/11 22:44:52;;;;;;;1.47;1.10;;;10.00;99.90;;;;;;20997622;28;20025;-76
2021/05/11 22:54:53;;;;;;;1.60;1.40;;;9.90;99.90;;;;;;20995567;28;20394;-76
2021/05/11 23:04:54;;;;;;;4.63;1.50;;;9.90;99.90;;;;;;20995879;28;20024;-76
2021/05/11 23:14:56;;;;;;;2.87;1.73;;;9.80;99.90;;;;;;20995464;28;20025;-76
2021/05/11 23:24:57;;;;;;;2.58;1.80;;;9.90;99.90;;;;;;20992986;28;20040;-76
2021/05/11 23:34:58;;;;;;;3.47;1.90;;;9.80;99.90;;;;;;20993481;28;20029;-76
2021/05/11 23:44:59;;;;;;;3.37;2.37;;;9.80;99.90;;;;;;20994387;28;20025;-76
2021/05/11 23:55:01;;;;;;;4.33;2.13;;;9.80;99.90;;;;;;20990738;28;20028;-76
